Saint Just, United Kingdom
Current Conditions -  °F | °C
As of 10:50 PM on Friday 31 Oct 2014 (Local Time) from EGDR Reporting Station
Light Rain Light Rain  
Wind Chill: 57°   Ceiling: 400
Heat Index: 57°   Visibility: 2.5mi
Dew Point: 55°   Wind: 15mph
Humidity: 94%   Direction: 210°SSW
Pressure: 29.91"   Gusts: 26mph
Location:  50.12°N, 5.7°W
Report Text: EGDR 312250Z 21013G23KT 4000 -RA FEW002 BKN004 BKN016 14/13 Q1013 YLO2
Loading
Personal Weather Stations






























Interactive Weather Map
Tropical Storm Tracking
New forecast layout! Learn more

10-Day Weather Forecast

Advertisements
Track Severe Weather on mobile